sensor_id;sensor_type;location;lat;lon;timestamp;P1;durP1;ratioP1;P2;durP2;ratioP2
54545;SDS011;40444;45.184;9.850;2023-03-11T00:00:47;2.15;;;0.50;;
54545;SDS011;40444;45.184;9.850;2023-03-11T00:03:19;2.67;;;0.80;;
54545;SDS011;40444;45.184;9.850;2023-03-11T00:05:52;1.25;;;0.63;;
54545;SDS011;40444;45.184;9.850;2023-03-11T00:08:25;1.50;;;0.60;;
54545;SDS011;40444;45.184;9.850;2023-03-11T00:10:55;1.20;;;0.63;;
54545;SDS011;40444;45.184;9.850;2023-03-11T00:13:27;1.25;;;0.47;;
54545;SDS011;40444;45.184;9.850;2023-03-11T00:15:59;1.00;;;0.50;;
54545;SDS011;40444;45.184;9.850;2023-03-11T00:18:31;2.00;;;0.70;;
54545;SDS011;40444;45.184;9.850;2023-03-11T00:21:00;1.95;;;0.80;;
54545;SDS011;40444;45.184;9.850;2023-03-11T00:23:29;1.17;;;0.60;;
54545;SDS011;40444;45.184;9.850;2023-03-11T00:25:59;1.17;;;0.57;;
54545;SDS011;40444;45.184;9.850;2023-03-11T00:28:29;1.98;;;0.60;;
54545;SDS011;40444;45.184;9.850;2023-03-11T00:31:06;3.90;;;1.25;;
54545;SDS011;40444;45.184;9.850;2023-03-11T00:33:37;1.67;;;0.50;;
54545;SDS011;40444;45.184;9.850;2023-03-11T00:36:10;2.42;;;0.70;;
54545;SDS011;40444;45.184;9.850;2023-03-11T00:38:52;3.57;;;1.47;;
54545;SDS011;40444;45.184;9.850;2023-03-11T00:41:24;3.88;;;1.27;;
54545;SDS011;40444;45.184;9.850;2023-03-11T00:43:52;1.83;;;0.80;;
54545;SDS011;40444;45.184;9.850;2023-03-11T00:46:21;2.70;;;0.65;;
54545;SDS011;40444;45.184;9.850;2023-03-11T00:48:52;2.65;;;1.08;;
54545;SDS011;40444;45.184;9.850;2023-03-11T00:51:24;1.25;;;0.50;;
54545;SDS011;40444;45.184;9.850;2023-03-11T00:53:54;1.20;;;0.52;;
54545;SDS011;40444;45.184;9.850;2023-03-11T00:56:23;1.58;;;0.50;;
54545;SDS011;40444;45.184;9.850;2023-03-11T00:58:56;1.95;;;0.60;;
54545;SDS011;40444;45.184;9.850;2023-03-11T01:01:30;2.67;;;0.98;;
54545;SDS011;40444;45.184;9.850;2023-03-11T01:03:58;1.40;;;0.50;;
54545;SDS011;40444;45.184;9.850;2023-03-11T01:06:30;1.35;;;0.45;;
54545;SDS011;40444;45.184;9.850;2023-03-11T01:09:11;2.58;;;0.80;;
54545;SDS011;40444;45.184;9.850;2023-03-11T01:11:39;2.97;;;0.68;;
54545;SDS011;40444;45.184;9.850;2023-03-11T01:14:08;1.65;;;0.70;;
54545;SDS011;40444;45.184;9.850;2023-03-11T01:16:37;1.13;;;0.40;;
54545;SDS011;40444;45.184;9.850;2023-03-11T01:19:08;3.15;;;0.75;;
54545;SDS011;40444;45.184;9.850;2023-03-11T01:21:37;4.05;;;0.80;;
54545;SDS011;40444;45.184;9.850;2023-03-11T01:24:06;3.03;;;0.60;;
54545;SDS011;40444;45.184;9.850;2023-03-11T01:26:34;2.35;;;0.60;;
54545;SDS011;40444;45.184;9.850;2023-03-11T01:29:03;2.92;;;0.60;;
54545;SDS011;40444;45.184;9.850;2023-03-11T01:31:31;1.35;;;0.63;;
54545;SDS011;40444;45.184;9.850;2023-03-11T01:33:59;2.97;;;0.75;;
54545;SDS011;40444;45.184;9.850;2023-03-11T01:36:28;2.40;;;0.70;;
54545;SDS011;40444;45.184;9.850;2023-03-11T01:38:56;3.08;;;0.70;;
54545;SDS011;40444;45.184;9.850;2023-03-11T01:41:26;1.10;;;0.60;;
54545;SDS011;40444;45.184;9.850;2023-03-11T01:43:54;1.48;;;0.75;;
54545;SDS011;40444;45.184;9.850;2023-03-11T01:46:27;1.35;;;0.40;;
54545;SDS011;40444;45.184;9.850;2023-03-11T01:49:01;2.08;;;0.77;;
54545;SDS011;40444;45.184;9.850;2023-03-11T01:51:36;1.33;;;0.50;;
54545;SDS011;40444;45.184;9.850;2023-03-11T01:54:23;1.52;;;0.40;;
54545;SDS011;40444;45.184;9.850;2023-03-11T01:56:55;1.90;;;0.80;;
54545;SDS011;40444;45.184;9.850;2023-03-11T01:59:29;3.67;;;0.70;;
54545;SDS011;40444;45.184;9.850;2023-03-11T02:02:07;2.10;;;0.65;;
54545;SDS011;40444;45.184;9.850;2023-03-11T02:04:42;0.90;;;0.40;;
54545;SDS011;40444;45.184;9.850;2023-03-11T02:07:11;0.82;;;0.40;;
54545;SDS011;40444;45.184;9.850;2023-03-11T02:09:41;1.95;;;0.95;;
54545;SDS011;40444;45.184;9.850;2023-03-11T02:12:10;1.20;;;0.60;;
54545;SDS011;40444;45.184;9.850;2023-03-11T02:14:45;2.08;;;0.70;;
54545;SDS011;40444;45.184;9.850;2023-03-11T02:17:17;2.50;;;1.15;;
54545;SDS011;40444;45.184;9.850;2023-03-11T02:20:04;1.63;;;0.55;;
54545;SDS011;40444;45.184;9.850;2023-03-11T02:22:41;1.92;;;0.95;;
54545;SDS011;40444;45.184;9.850;2023-03-11T02:25:17;1.13;;;0.68;;
54545;SDS011;40444;45.184;9.850;2023-03-11T02:27:54;1.80;;;0.88;;
54545;SDS011;40444;45.184;9.850;2023-03-11T02:30:26;0.85;;;0.50;;
54545;SDS011;40444;45.184;9.850;2023-03-11T02:32:55;1.17;;;0.50;;
54545;SDS011;40444;45.184;9.850;2023-03-11T02:35:24;1.95;;;0.93;;
54545;SDS011;40444;45.184;9.850;2023-03-11T02:37:54;1.35;;;0.40;;
54545;SDS011;40444;45.184;9.850;2023-03-11T02:43:01;2.58;;;0.47;;
54545;SDS011;40444;45.184;9.850;2023-03-11T02:45:33;1.08;;;0.38;;
54545;SDS011;40444;45.184;9.850;2023-03-11T02:48:03;1.75;;;0.63;;
54545;SDS011;40444;45.184;9.850;2023-03-11T02:50:32;2.58;;;0.60;;
54545;SDS011;40444;45.184;9.850;2023-03-11T02:53:04;1.45;;;0.60;;
54545;SDS011;40444;45.184;9.850;2023-03-11T02:55:33;2.47;;;0.88;;
54545;SDS011;40444;45.184;9.850;2023-03-11T02:58:01;2.20;;;0.80;;
54545;SDS011;40444;45.184;9.850;2023-03-11T03:00:30;1.30;;;0.60;;
54545;SDS011;40444;45.184;9.850;2023-03-11T03:03:03;1.27;;;0.50;;
54545;SDS011;40444;45.184;9.850;2023-03-11T03:05:32;2.53;;;0.47;;
54545;SDS011;40444;45.184;9.850;2023-03-11T03:08:01;1.17;;;0.45;;
54545;SDS011;40444;45.184;9.850;2023-03-11T03:10:29;1.45;;;0.70;;
54545;SDS011;40444;45.184;9.850;2023-03-11T03:12:57;4.20;;;0.82;;
54545;SDS011;40444;45.184;9.850;2023-03-11T03:15:26;0.85;;;0.50;;
54545;SDS011;40444;45.184;9.850;2023-03-11T03:17:54;1.63;;;0.80;;
54545;SDS011;40444;45.184;9.850;2023-03-11T03:20:23;1.08;;;0.52;;
54545;SDS011;40444;45.184;9.850;2023-03-11T03:22:57;1.23;;;0.40;;
54545;SDS011;40444;45.184;9.850;2023-03-11T03:25:28;0.80;;;0.40;;
54545;SDS011;40444;45.184;9.850;2023-03-11T03:28:00;2.20;;;0.80;;
54545;SDS011;40444;45.184;9.850;2023-03-11T03:30:31;0.70;;;0.28;;
54545;SDS011;40444;45.184;9.850;2023-03-11T03:33:00;0.90;;;0.47;;
54545;SDS011;40444;45.184;9.850;2023-03-11T03:35:29;1.77;;;0.43;;
54545;SDS011;40444;45.184;9.850;2023-03-11T03:38:04;0.93;;;0.45;;
54545;SDS011;40444;45.184;9.850;2023-03-11T03:40:33;3.30;;;0.40;;
54545;SDS011;40444;45.184;9.850;2023-03-11T03:43:04;1.52;;;0.73;;
54545;SDS011;40444;45.184;9.850;2023-03-11T03:45:34;1.05;;;0.40;;
54545;SDS011;40444;45.184;9.850;2023-03-11T03:48:03;1.70;;;0.40;;
54545;SDS011;40444;45.184;9.850;2023-03-11T03:50:35;1.55;;;0.47;;
54545;SDS011;40444;45.184;9.850;2023-03-11T03:53:03;2.53;;;0.52;;
54545;SDS011;40444;45.184;9.850;2023-03-11T03:55:31;1.48;;;0.47;;
54545;SDS011;40444;45.184;9.850;2023-03-11T03:58:00;1.13;;;0.40;;
54545;SDS011;40444;45.184;9.850;2023-03-11T04:00:32;1.65;;;0.40;;
54545;SDS011;40444;45.184;9.850;2023-03-11T04:03:02;2.90;;;0.50;;
54545;SDS011;40444;45.184;9.850;2023-03-11T04:05:39;1.70;;;0.40;;
54545;SDS011;40444;45.184;9.850;2023-03-11T04:08:07;1.70;;;0.60;;
54545;SDS011;40444;45.184;9.850;2023-03-11T04:10:35;1.00;;;0.50;;
54545;SDS011;40444;45.184;9.850;2023-03-11T04:13:04;0.85;;;0.40;;
54545;SDS011;40444;45.184;9.850;2023-03-11T04:15:33;1.10;;;0.65;;
54545;SDS011;40444;45.184;9.850;2023-03-11T04:18:01;1.10;;;0.50;;
54545;SDS011;40444;45.184;9.850;2023-03-11T04:20:30;1.88;;;0.70;;
54545;SDS011;40444;45.184;9.850;2023-03-11T04:22:58;0.45;;;0.32;;
54545;SDS011;40444;45.184;9.850;2023-03-11T04:25:27;0.93;;;0.57;;
54545;SDS011;40444;45.184;9.850;2023-03-11T04:27:55;1.63;;;0.50;;
54545;SDS011;40444;45.184;9.850;2023-03-11T04:30:23;2.15;;;0.60;;
54545;SDS011;40444;45.184;9.850;2023-03-11T04:32:55;1.02;;;0.50;;
54545;SDS011;40444;45.184;9.850;2023-03-11T04:35:24;3.28;;;0.50;;
54545;SDS011;40444;45.184;9.850;2023-03-11T04:37:52;1.10;;;0.60;;
54545;SDS011;40444;45.184;9.850;2023-03-11T04:40:21;1.83;;;0.63;;
54545;SDS011;40444;45.184;9.850;2023-03-11T04:42:51;2.33;;;0.52;;
54545;SDS011;40444;45.184;9.850;2023-03-11T04:45:21;0.90;;;0.50;;
54545;SDS011;40444;45.184;9.850;2023-03-11T04:47:52;1.00;;;0.52;;
54545;SDS011;40444;45.184;9.850;2023-03-11T04:50:21;0.65;;;0.30;;
54545;SDS011;40444;45.184;9.850;2023-03-11T04:52:50;1.48;;;0.73;;
54545;SDS011;40444;45.184;9.850;2023-03-11T04:55:18;2.08;;;0.60;;
54545;SDS011;40444;45.184;9.850;2023-03-11T04:57:46;1.73;;;0.50;;
54545;SDS011;40444;45.184;9.850;2023-03-11T05:00:15;2.35;;;0.60;;
54545;SDS011;40444;45.184;9.850;2023-03-11T05:02:50;1.67;;;0.80;;
54545;SDS011;40444;45.184;9.850;2023-03-11T05:05:19;0.90;;;0.45;;
54545;SDS011;40444;45.184;9.850;2023-03-11T05:07:48;1.25;;;0.55;;
54545;SDS011;40444;45.184;9.850;2023-03-11T05:10:16;2.58;;;0.60;;
54545;SDS011;40444;45.184;9.850;2023-03-11T05:12:53;1.17;;;0.45;;
54545;SDS011;40444;45.184;9.850;2023-03-11T05:15:24;1.13;;;0.57;;
54545;SDS011;40444;45.184;9.850;2023-03-11T05:17:53;1.52;;;0.47;;
54545;SDS011;40444;45.184;9.850;2023-03-11T05:20:22;1.63;;;0.52;;
54545;SDS011;40444;45.184;9.850;2023-03-11T05:22:50;1.10;;;0.40;;
54545;SDS011;40444;45.184;9.850;2023-03-11T05:25:19;1.77;;;0.70;;
54545;SDS011;40444;45.184;9.850;2023-03-11T05:27:48;0.95;;;0.50;;
54545;SDS011;40444;45.184;9.850;2023-03-11T05:30:17;0.82;;;0.47;;
54545;SDS011;40444;45.184;9.850;2023-03-11T05:32:47;1.35;;;0.50;;
54545;SDS011;40444;45.184;9.850;2023-03-11T19:05:44;2.20;;;1.43;;
54545;SDS011;40444;45.184;9.850;2023-03-11T19:08:17;26.65;;;5.32;;
54545;SDS011;40444;45.184;9.850;2023-03-11T19:10:45;4.28;;;2.00;;
54545;SDS011;40444;45.184;9.850;2023-03-11T19:13:14;3.95;;;1.20;;
54545;SDS011;40444;45.184;9.850;2023-03-11T19:15:46;5.57;;;1.30;;
54545;SDS011;40444;45.184;9.850;2023-03-11T19:18:14;2.83;;;1.20;;
54545;SDS011;40444;45.184;9.850;2023-03-11T19:20:43;3.03;;;1.17;;
54545;SDS011;40444;45.184;9.850;2023-03-11T19:23:11;3.75;;;1.17;;
54545;SDS011;40444;45.184;9.850;2023-03-11T19:25:39;3.15;;;1.00;;
54545;SDS011;40444;45.184;9.850;2023-03-11T19:28:19;2.40;;;1.00;;
54545;SDS011;40444;45.184;9.850;2023-03-11T19:30:49;1.77;;;1.10;;
54545;SDS011;40444;45.184;9.850;2023-03-11T19:33:18;1.85;;;0.95;;
54545;SDS011;40444;45.184;9.850;2023-03-11T19:35:56;7.18;;;1.48;;
54545;SDS011;40444;45.184;9.850;2023-03-11T19:38:26;1.80;;;0.90;;
54545;SDS011;40444;45.184;9.850;2023-03-11T19:41:02;1.90;;;0.80;;
54545;SDS011;40444;45.184;9.850;2023-03-11T19:43:31;9.85;;;1.50;;
54545;SDS011;40444;45.184;9.850;2023-03-11T19:46:00;4.80;;;1.23;;
54545;SDS011;40444;45.184;9.850;2023-03-11T19:48:29;2.25;;;0.75;;
54545;SDS011;40444;45.184;9.850;2023-03-11T19:50:57;1.65;;;0.90;;
54545;SDS011;40444;45.184;9.850;2023-03-11T19:53:26;2.20;;;1.50;;
54545;SDS011;40444;45.184;9.850;2023-03-11T19:55:54;2.03;;;1.45;;
54545;SDS011;40444;45.184;9.850;2023-03-11T19:58:24;3.17;;;1.42;;
54545;SDS011;40444;45.184;9.850;2023-03-11T20:00:57;2.63;;;1.70;;
54545;SDS011;40444;45.184;9.850;2023-03-11T20:03:26;2.50;;;1.33;;
54545;SDS011;40444;45.184;9.850;2023-03-11T20:05:55;3.20;;;1.10;;
54545;SDS011;40444;45.184;9.850;2023-03-11T20:08:30;2.03;;;1.30;;
54545;SDS011;40444;45.184;9.850;2023-03-11T20:11:04;3.28;;;1.38;;
54545;SDS011;40444;45.184;9.850;2023-03-11T20:13:34;1.70;;;1.00;;
54545;SDS011;40444;45.184;9.850;2023-03-11T20:16:04;2.00;;;1.13;;
54545;SDS011;40444;45.184;9.850;2023-03-11T20:18:37;1.52;;;0.90;;
54545;SDS011;40444;45.184;9.850;2023-03-11T20:21:07;2.88;;;1.08;;
54545;SDS011;40444;45.184;9.850;2023-03-11T20:23:38;1.60;;;0.90;;
54545;SDS011;40444;45.184;9.850;2023-03-11T20:26:08;2.75;;;1.20;;
54545;SDS011;40444;45.184;9.850;2023-03-11T20:28:42;2.65;;;1.13;;
54545;SDS011;40444;45.184;9.850;2023-03-11T20:31:15;3.08;;;1.40;;
54545;SDS011;40444;45.184;9.850;2023-03-11T20:33:47;2.45;;;1.48;;
54545;SDS011;40444;45.184;9.850;2023-03-11T20:36:19;2.72;;;1.60;;
54545;SDS011;40444;45.184;9.850;2023-03-11T20:38:50;5.78;;;2.03;;
54545;SDS011;40444;45.184;9.850;2023-03-11T20:41:21;7.15;;;4.00;;
54545;SDS011;40444;45.184;9.850;2023-03-11T20:43:51;16.08;;;10.70;;
54545;SDS011;40444;45.184;9.850;2023-03-11T20:46:21;21.60;;;12.10;;
54545;SDS011;40444;45.184;9.850;2023-03-11T20:48:49;20.92;;;14.13;;
54545;SDS011;40444;45.184;9.850;2023-03-11T20:51:17;26.48;;;16.15;;
54545;SDS011;40444;45.184;9.850;2023-03-11T20:53:47;24.90;;;16.58;;
54545;SDS011;40444;45.184;9.850;2023-03-11T20:56:17;25.25;;;17.35;;
54545;SDS011;40444;45.184;9.850;2023-03-11T20:58:47;28.73;;;17.92;;
54545;SDS011;40444;45.184;9.850;2023-03-11T21:01:19;27.75;;;19.38;;
54545;SDS011;40444;45.184;9.850;2023-03-11T21:03:51;33.08;;;20.42;;
54545;SDS011;40444;45.184;9.850;2023-03-11T21:06:25;31.48;;;20.38;;
54545;SDS011;40444;45.184;9.850;2023-03-11T21:08:57;34.67;;;21.83;;
54545;SDS011;40444;45.184;9.850;2023-03-11T21:11:30;34.58;;;22.40;;
54545;SDS011;40444;45.184;9.850;2023-03-11T21:13:58;34.22;;;21.02;;
54545;SDS011;40444;45.184;9.850;2023-03-11T21:16:27;34.53;;;22.30;;
54545;SDS011;40444;45.184;9.850;2023-03-11T21:18:56;33.70;;;22.08;;
54545;SDS011;40444;45.184;9.850;2023-03-11T21:21:24;34.15;;;21.90;;
54545;SDS011;40444;45.184;9.850;2023-03-11T21:23:53;40.78;;;24.20;;
54545;SDS011;40444;45.184;9.850;2023-03-11T21:26:21;32.95;;;23.08;;
54545;SDS011;40444;45.184;9.850;2023-03-11T21:28:50;34.80;;;22.83;;
54545;SDS011;40444;45.184;9.850;2023-03-11T21:31:20;39.03;;;24.23;;
54545;SDS011;40444;45.184;9.850;2023-03-11T21:33:53;39.65;;;24.67;;
54545;SDS011;40444;45.184;9.850;2023-03-11T21:36:23;40.53;;;24.60;;
54545;SDS011;40444;45.184;9.850;2023-03-11T21:38:52;40.47;;;25.00;;
54545;SDS011;40444;45.184;9.850;2023-03-11T21:41:23;38.35;;;25.38;;
54545;SDS011;40444;45.184;9.850;2023-03-11T21:43:54;43.05;;;27.20;;
54545;SDS011;40444;45.184;9.850;2023-03-11T21:46:24;39.28;;;28.10;;
54545;SDS011;40444;45.184;9.850;2023-03-11T21:48:55;41.47;;;27.73;;
54545;SDS011;40444;45.184;9.850;2023-03-11T21:51:25;48.03;;;29.77;;
54545;SDS011;40444;45.184;9.850;2023-03-11T21:53:53;46.28;;;29.02;;
54545;SDS011;40444;45.184;9.850;2023-03-11T21:56:21;39.70;;;26.35;;
54545;SDS011;40444;45.184;9.850;2023-03-11T21:58:50;41.10;;;28.48;;
54545;SDS011;40444;45.184;9.850;2023-03-11T22:01:20;39.58;;;26.25;;
54545;SDS011;40444;45.184;9.850;2023-03-11T22:03:49;41.20;;;27.00;;
54545;SDS011;40444;45.184;9.850;2023-03-11T22:06:18;44.38;;;28.27;;
54545;SDS011;40444;45.184;9.850;2023-03-11T22:08:46;41.15;;;27.48;;
54545;SDS011;40444;45.184;9.850;2023-03-11T22:11:15;39.78;;;28.33;;
54545;SDS011;40444;45.184;9.850;2023-03-11T22:13:46;40.70;;;26.23;;
54545;SDS011;40444;45.184;9.850;2023-03-11T22:16:16;41.47;;;26.38;;
54545;SDS011;40444;45.184;9.850;2023-03-11T22:18:46;39.30;;;26.10;;
54545;SDS011;40444;45.184;9.850;2023-03-11T22:21:15;39.85;;;27.42;;
54545;SDS011;40444;45.184;9.850;2023-03-11T22:23:44;36.85;;;25.75;;
54545;SDS011;40444;45.184;9.850;2023-03-11T22:26:13;38.95;;;25.33;;
54545;SDS011;40444;45.184;9.850;2023-03-11T22:28:42;39.05;;;25.00;;
54545;SDS011;40444;45.184;9.850;2023-03-11T22:31:11;41.97;;;26.85;;
54545;SDS011;40444;45.184;9.850;2023-03-11T22:33:40;44.80;;;27.17;;
54545;SDS011;40444;45.184;9.850;2023-03-11T22:36:09;41.85;;;28.20;;
54545;SDS011;40444;45.184;9.850;2023-03-11T22:38:37;43.15;;;28.15;;
54545;SDS011;40444;45.184;9.850;2023-03-11T22:41:08;48.40;;;31.10;;
54545;SDS011;40444;45.184;9.850;2023-03-11T22:43:37;43.60;;;28.30;;
54545;SDS011;40444;45.184;9.850;2023-03-11T22:46:05;43.70;;;27.33;;
54545;SDS011;40444;45.184;9.850;2023-03-11T22:48:34;49.30;;;29.17;;
54545;SDS011;40444;45.184;9.850;2023-03-11T22:51:03;45.33;;;28.88;;
54545;SDS011;40444;45.184;9.850;2023-03-11T22:53:32;43.20;;;29.40;;
54545;SDS011;40444;45.184;9.850;2023-03-11T22:56:05;45.28;;;30.42;;
54545;SDS011;40444;45.184;9.850;2023-03-11T22:58:35;52.85;;;32.72;;
54545;SDS011;40444;45.184;9.850;2023-03-11T23:01:04;49.47;;;31.85;;
54545;SDS011;40444;45.184;9.850;2023-03-11T23:03:33;48.45;;;32.60;;
54545;SDS011;40444;45.184;9.850;2023-03-11T23:06:04;54.67;;;34.05;;
54545;SDS011;40444;45.184;9.850;2023-03-11T23:08:34;48.58;;;31.10;;
54545;SDS011;40444;45.184;9.850;2023-03-11T23:11:06;53.78;;;33.05;;
54545;SDS011;40444;45.184;9.850;2023-03-11T23:13:38;55.33;;;34.15;;
54545;SDS011;40444;45.184;9.850;2023-03-11T23:16:09;52.53;;;33.00;;
54545;SDS011;40444;45.184;9.850;2023-03-11T23:18:41;49.03;;;33.45;;
54545;SDS011;40444;45.184;9.850;2023-03-11T23:21:17;52.08;;;32.10;;
54545;SDS011;40444;45.184;9.850;2023-03-11T23:23:48;50.17;;;32.22;;
54545;SDS011;40444;45.184;9.850;2023-03-11T23:26:16;51.50;;;31.85;;
54545;SDS011;40444;45.184;9.850;2023-03-11T23:28:45;48.80;;;32.13;;
54545;SDS011;40444;45.184;9.850;2023-03-11T23:31:14;49.47;;;30.50;;
54545;SDS011;40444;45.184;9.850;2023-03-11T23:33:43;46.65;;;28.98;;
54545;SDS011;40444;45.184;9.850;2023-03-11T23:36:13;45.85;;;27.83;;
54545;SDS011;40444;45.184;9.850;2023-03-11T23:38:44;47.65;;;28.95;;
54545;SDS011;40444;45.184;9.850;2023-03-11T23:41:13;45.38;;;28.35;;
54545;SDS011;40444;45.184;9.850;2023-03-11T23:43:44;43.53;;;27.13;;
54545;SDS011;40444;45.184;9.850;2023-03-11T23:46:12;42.72;;;27.85;;
54545;SDS011;40444;45.184;9.850;2023-03-11T23:48:42;44.00;;;27.23;;
54545;SDS011;40444;45.184;9.850;2023-03-11T23:51:10;39.83;;;26.17;;
54545;SDS011;40444;45.184;9.850;2023-03-11T23:53:39;38.55;;;24.35;;
54545;SDS011;40444;45.184;9.850;2023-03-11T23:56:11;34.45;;;22.55;;
54545;SDS011;40444;45.184;9.850;2023-03-11T23:58:41;33.72;;;21.00;;
